sensor_id;sensor_type;location;lat;lon;timestamp;temperature;humidity
17172;DHT22;8701;50.150;8.756;2023-11-19T00:00:46;8.60;99.90
17172;DHT22;8701;50.150;8.756;2023-11-19T00:04:49;8.60;99.90
17172;DHT22;8701;50.150;8.756;2023-11-19T00:08:51;8.60;99.90
17172;DHT22;8701;50.150;8.756;2023-11-19T00:12:54;8.70;99.90
17172;DHT22;8701;50.150;8.756;2023-11-19T00:16:57;8.70;99.90
17172;DHT22;8701;50.150;8.756;2023-11-19T00:21:00;8.70;99.90
17172;DHT22;8701;50.150;8.756;2023-11-19T00:25:04;8.70;99.90
17172;DHT22;8701;50.150;8.756;2023-11-19T00:29:08;8.70;99.90
17172;DHT22;8701;50.150;8.756;2023-11-19T00:33:11;8.70;99.90
17172;DHT22;8701;50.150;8.756;2023-11-19T00:37:13;8.70;99.90
17172;DHT22;8701;50.150;8.756;2023-11-19T00:41:16;8.70;99.90
17172;DHT22;8701;50.150;8.756;2023-11-19T00:45:20;8.80;99.90
17172;DHT22;8701;50.150;8.756;2023-11-19T00:49:22;8.80;99.90
17172;DHT22;8701;50.150;8.756;2023-11-19T00:53:24;8.80;99.90
17172;DHT22;8701;50.150;8.756;2023-11-19T00:57:26;8.80;99.90
17172;DHT22;8701;50.150;8.756;2023-11-19T01:01:32;8.70;99.90
17172;DHT22;8701;50.150;8.756;2023-11-19T01:05:44;8.80;99.90
17172;DHT22;8701;50.150;8.756;2023-11-19T01:09:49;8.80;99.90
17172;DHT22;8701;50.150;8.756;2023-11-19T01:14:10;8.80;99.90
17172;DHT22;8701;50.150;8.756;2023-11-19T01:18:40;8.80;99.90
17172;DHT22;8701;50.150;8.756;2023-11-19T01:22:42;8.90;99.90
17172;DHT22;8701;50.150;8.756;2023-11-19T01:26:45;8.90;99.90
17172;DHT22;8701;50.150;8.756;2023-11-19T01:30:50;8.90;99.90
17172;DHT22;8701;50.150;8.756;2023-11-19T01:34:54;8.90;99.90
17172;DHT22;8701;50.150;8.756;2023-11-19T01:38:56;8.90;99.90
17172;DHT22;8701;50.150;8.756;2023-11-19T01:42:58;9.00;99.90
17172;DHT22;8701;50.150;8.756;2023-11-19T01:47:01;9.00;99.90
17172;DHT22;8701;50.150;8.756;2023-11-19T01:51:07;9.00;99.90
17172;DHT22;8701;50.150;8.756;2023-11-19T01:55:10;9.10;99.90
17172;DHT22;8701;50.150;8.756;2023-11-19T01:59:13;9.10;99.90
17172;DHT22;8701;50.150;8.756;2023-11-19T02:03:16;9.10;99.90
17172;DHT22;8701;50.150;8.756;2023-11-19T02:07:21;9.10;99.90
17172;DHT22;8701;50.150;8.756;2023-11-19T02:11:23;9.10;99.90
17172;DHT22;8701;50.150;8.756;2023-11-19T02:15:30;9.10;99.90
17172;DHT22;8701;50.150;8.756;2023-11-19T02:19:33;9.10;99.90
17172;DHT22;8701;50.150;8.756;2023-11-19T02:23:37;9.10;99.90
17172;DHT22;8701;50.150;8.756;2023-11-19T02:27:46;9.20;99.90
17172;DHT22;8701;50.150;8.756;2023-11-19T02:31:50;9.20;99.90
17172;DHT22;8701;50.150;8.756;2023-11-19T02:35:52;9.20;99.90
17172;DHT22;8701;50.150;8.756;2023-11-19T02:39:54;9.20;99.90
17172;DHT22;8701;50.150;8.756;2023-11-19T02:43:58;9.20;99.90
17172;DHT22;8701;50.150;8.756;2023-11-19T02:48:02;9.20;99.90
17172;DHT22;8701;50.150;8.756;2023-11-19T02:52:07;9.30;99.90
17172;DHT22;8701;50.150;8.756;2023-11-19T02:56:11;9.30;99.90
17172;DHT22;8701;50.150;8.756;2023-11-19T03:00:23;9.30;99.90
17172;DHT22;8701;50.150;8.756;2023-11-19T03:04:26;9.30;99.90
17172;DHT22;8701;50.150;8.756;2023-11-19T03:08:29;9.30;99.90
17172;DHT22;8701;50.150;8.756;2023-11-19T03:12:32;9.30;99.90
17172;DHT22;8701;50.150;8.756;2023-11-19T03:16:35;9.40;99.90
17172;DHT22;8701;50.150;8.756;2023-11-19T03:20:38;9.40;99.90
17172;DHT22;8701;50.150;8.756;2023-11-19T03:24:40;9.40;99.90
17172;DHT22;8701;50.150;8.756;2023-11-19T03:28:44;9.40;99.90
17172;DHT22;8701;50.150;8.756;2023-11-19T03:32:47;9.40;99.90
17172;DHT22;8701;50.150;8.756;2023-11-19T03:36:50;9.50;99.90
17172;DHT22;8701;50.150;8.756;2023-11-19T03:40:53;9.50;99.90
17172;DHT22;8701;50.150;8.756;2023-11-19T03:44:56;9.50;99.90
17172;DHT22;8701;50.150;8.756;2023-11-19T03:49:01;9.50;99.90
17172;DHT22;8701;50.150;8.756;2023-11-19T03:53:05;9.60;99.90
17172;DHT22;8701;50.150;8.756;2023-11-19T03:57:07;9.60;99.90
17172;DHT22;8701;50.150;8.756;2023-11-19T04:01:12;9.60;99.90
17172;DHT22;8701;50.150;8.756;2023-11-19T04:05:16;9.60;99.90
17172;DHT22;8701;50.150;8.756;2023-11-19T04:09:20;9.60;99.90
17172;DHT22;8701;50.150;8.756;2023-11-19T04:13:22;9.60;99.90
17172;DHT22;8701;50.150;8.756;2023-11-19T04:17:25;9.60;99.90
17172;DHT22;8701;50.150;8.756;2023-11-19T04:21:28;9.60;99.90
17172;DHT22;8701;50.150;8.756;2023-11-19T04:25:31;9.70;99.90
17172;DHT22;8701;50.150;8.756;2023-11-19T04:29:33;9.70;99.90
17172;DHT22;8701;50.150;8.756;2023-11-19T04:33:35;9.70;99.90
17172;DHT22;8701;50.150;8.756;2023-11-19T04:37:39;9.70;99.90
17172;DHT22;8701;50.150;8.756;2023-11-19T04:41:47;9.70;99.90
17172;DHT22;8701;50.150;8.756;2023-11-19T04:45:50;9.70;99.90
17172;DHT22;8701;50.150;8.756;2023-11-19T04:49:52;9.80;99.90
17172;DHT22;8701;50.150;8.756;2023-11-19T04:53:55;9.80;99.90
17172;DHT22;8701;50.150;8.756;2023-11-19T04:57:58;9.80;99.90
17172;DHT22;8701;50.150;8.756;2023-11-19T05:02:00;9.80;99.90
17172;DHT22;8701;50.150;8.756;2023-11-19T05:06:03;9.90;99.90
17172;DHT22;8701;50.150;8.756;2023-11-19T05:10:07;9.90;99.90
17172;DHT22;8701;50.150;8.756;2023-11-19T05:14:10;9.90;99.90
17172;DHT22;8701;50.150;8.756;2023-11-19T05:18:12;10.00;99.90
17172;DHT22;8701;50.150;8.756;2023-11-19T05:22:15;10.00;99.90
17172;DHT22;8701;50.150;8.756;2023-11-19T05:26:19;10.00;99.90
17172;DHT22;8701;50.150;8.756;2023-11-19T05:30:22;10.00;99.90
17172;DHT22;8701;50.150;8.756;2023-11-19T05:34:24;10.00;99.90
17172;DHT22;8701;50.150;8.756;2023-11-19T05:38:27;10.00;99.90
17172;DHT22;8701;50.150;8.756;2023-11-19T05:42:31;10.00;99.90
17172;DHT22;8701;50.150;8.756;2023-11-19T05:46:33;10.10;99.90
17172;DHT22;8701;50.150;8.756;2023-11-19T05:50:41;10.00;99.90
17172;DHT22;8701;50.150;8.756;2023-11-19T05:54:43;10.10;99.90
17172;DHT22;8701;50.150;8.756;2023-11-19T05:58:47;10.10;99.90
17172;DHT22;8701;50.150;8.756;2023-11-19T06:02:50;10.10;99.90
17172;DHT22;8701;50.150;8.756;2023-11-19T06:06:52;10.10;99.90
17172;DHT22;8701;50.150;8.756;2023-11-19T06:10:55;10.20;99.90
17172;DHT22;8701;50.150;8.756;2023-11-19T06:15:00;10.20;99.90
17172;DHT22;8701;50.150;8.756;2023-11-19T06:19:02;10.20;99.90
17172;DHT22;8701;50.150;8.756;2023-11-19T06:23:05;10.20;99.90
17172;DHT22;8701;50.150;8.756;2023-11-19T06:27:07;10.20;99.90
17172;DHT22;8701;50.150;8.756;2023-11-19T06:31:11;10.30;99.90
17172;DHT22;8701;50.150;8.756;2023-11-19T06:35:17;10.30;99.90
17172;DHT22;8701;50.150;8.756;2023-11-19T06:39:19;10.30;99.90
17172;DHT22;8701;50.150;8.756;2023-11-19T06:43:21;10.30;99.90
17172;DHT22;8701;50.150;8.756;2023-11-19T06:47:26;10.30;99.90
17172;DHT22;8701;50.150;8.756;2023-11-19T06:51:29;10.40;99.90
17172;DHT22;8701;50.150;8.756;2023-11-19T06:55:32;10.40;99.90
17172;DHT22;8701;50.150;8.756;2023-11-19T06:59:34;10.40;99.90
17172;DHT22;8701;50.150;8.756;2023-11-19T07:03:37;10.40;99.90
17172;DHT22;8701;50.150;8.756;2023-11-19T07:07:40;10.40;99.90
17172;DHT22;8701;50.150;8.756;2023-11-19T07:11:42;10.50;99.90
17172;DHT22;8701;50.150;8.756;2023-11-19T07:15:45;10.50;99.90
17172;DHT22;8701;50.150;8.756;2023-11-19T07:19:49;10.50;99.90
17172;DHT22;8701;50.150;8.756;2023-11-19T07:23:52;10.50;99.90
17172;DHT22;8701;50.150;8.756;2023-11-19T07:27:54;10.60;99.90
17172;DHT22;8701;50.150;8.756;2023-11-19T07:31:57;10.60;99.90
17172;DHT22;8701;50.150;8.756;2023-11-19T07:36:05;10.60;99.90
17172;DHT22;8701;50.150;8.756;2023-11-19T07:40:09;10.70;99.90
17172;DHT22;8701;50.150;8.756;2023-11-19T07:44:12;10.70;99.90
17172;DHT22;8701;50.150;8.756;2023-11-19T07:48:15;10.70;99.90
17172;DHT22;8701;50.150;8.756;2023-11-19T07:52:20;10.70;99.90
17172;DHT22;8701;50.150;8.756;2023-11-19T07:56:22;10.80;99.90
17172;DHT22;8701;50.150;8.756;2023-11-19T08:00:25;10.80;99.90
17172;DHT22;8701;50.150;8.756;2023-11-19T08:04:28;10.80;99.90
17172;DHT22;8701;50.150;8.756;2023-11-19T08:08:31;10.90;99.90
17172;DHT22;8701;50.150;8.756;2023-11-19T08:12:34;10.90;99.90
17172;DHT22;8701;50.150;8.756;2023-11-19T08:16:38;10.90;99.90
17172;DHT22;8701;50.150;8.756;2023-11-19T08:20:41;11.00;99.90
17172;DHT22;8701;50.150;8.756;2023-11-19T08:24:46;11.00;99.90
17172;DHT22;8701;50.150;8.756;2023-11-19T08:28:49;11.10;99.90
17172;DHT22;8701;50.150;8.756;2023-11-19T08:32:53;11.10;99.90
17172;DHT22;8701;50.150;8.756;2023-11-19T08:36:55;11.10;99.90
17172;DHT22;8701;50.150;8.756;2023-11-19T08:40:58;11.10;99.90
17172;DHT22;8701;50.150;8.756;2023-11-19T08:45:02;11.10;99.90
17172;DHT22;8701;50.150;8.756;2023-11-19T08:49:05;11.20;99.90
17172;DHT22;8701;50.150;8.756;2023-11-19T08:53:09;11.20;99.90
17172;DHT22;8701;50.150;8.756;2023-11-19T08:57:13;11.20;99.90
17172;DHT22;8701;50.150;8.756;2023-11-19T09:01:16;11.40;99.90
17172;DHT22;8701;50.150;8.756;2023-11-19T09:05:18;11.40;99.90
17172;DHT22;8701;50.150;8.756;2023-11-19T09:09:20;11.50;99.90
17172;DHT22;8701;50.150;8.756;2023-11-19T09:13:24;11.60;99.90
17172;DHT22;8701;50.150;8.756;2023-11-19T09:17:26;11.60;99.90
17172;DHT22;8701;50.150;8.756;2023-11-19T09:21:28;11.70;99.90
17172;DHT22;8701;50.150;8.756;2023-11-19T09:25:30;12.00;99.90
17172;DHT22;8701;50.150;8.756;2023-11-19T09:29:34;12.20;99.90
17172;DHT22;8701;50.150;8.756;2023-11-19T09:33:37;12.40;99.90
17172;DHT22;8701;50.150;8.756;2023-11-19T09:37:39;12.50;99.90
17172;DHT22;8701;50.150;8.756;2023-11-19T09:41:41;12.70;99.90
17172;DHT22;8701;50.150;8.756;2023-11-19T09:45:49;12.90;99.90
17172;DHT22;8701;50.150;8.756;2023-11-19T09:49:52;13.00;99.90
17172;DHT22;8701;50.150;8.756;2023-11-19T09:53:55;13.20;99.90
17172;DHT22;8701;50.150;8.756;2023-11-19T09:57:57;13.30;99.90
17172;DHT22;8701;50.150;8.756;2023-11-19T10:02:03;13.50;99.90
17172;DHT22;8701;50.150;8.756;2023-11-19T10:06:06;13.60;99.90
17172;DHT22;8701;50.150;8.756;2023-11-19T10:10:09;13.70;99.90
17172;DHT22;8701;50.150;8.756;2023-11-19T10:14:15;13.80;99.90
17172;DHT22;8701;50.150;8.756;2023-11-19T10:18:25;14.00;99.90
17172;DHT22;8701;50.150;8.756;2023-11-19T10:22:28;14.10;99.90
17172;DHT22;8701;50.150;8.756;2023-11-19T10:26:30;14.20;99.90
17172;DHT22;8701;50.150;8.756;2023-11-19T10:30:34;14.30;99.90
17172;DHT22;8701;50.150;8.756;2023-11-19T10:34:38;14.50;99.90
17172;DHT22;8701;50.150;8.756;2023-11-19T10:38:41;14.60;99.90
17172;DHT22;8701;50.150;8.756;2023-11-19T10:43:02;14.70;99.90
17172;DHT22;8701;50.150;8.756;2023-11-19T10:47:06;14.90;99.90
17172;DHT22;8701;50.150;8.756;2023-11-19T10:51:13;15.20;99.90
17172;DHT22;8701;50.150;8.756;2023-11-19T10:55:26;15.40;99.90
17172;DHT22;8701;50.150;8.756;2023-11-19T10:59:30;15.70;99.90
17172;DHT22;8701;50.150;8.756;2023-11-19T11:03:38;16.00;99.90
17172;DHT22;8701;50.150;8.756;2023-11-19T11:07:44;16.50;99.90
17172;DHT22;8701;50.150;8.756;2023-11-19T11:11:47;17.00;99.90
17172;DHT22;8701;50.150;8.756;2023-11-19T11:15:50;17.50;99.90
17172;DHT22;8701;50.150;8.756;2023-11-19T11:19:53;18.20;99.90
17172;DHT22;8701;50.150;8.756;2023-11-19T11:24:20;18.80;99.90
17172;DHT22;8701;50.150;8.756;2023-11-19T11:28:31;19.90;99.90
17172;DHT22;8701;50.150;8.756;2023-11-19T11:32:40;20.50;99.90
17172;DHT22;8701;50.150;8.756;2023-11-19T11:36:52;19.80;99.90
17172;DHT22;8701;50.150;8.756;2023-11-19T11:41:20;19.50;99.90
17172;DHT22;8701;50.150;8.756;2023-11-19T11:45:35;20.40;99.90
17172;DHT22;8701;50.150;8.756;2023-11-19T11:49:38;20.60;99.90
17172;DHT22;8701;50.150;8.756;2023-11-19T11:53:41;19.40;99.90
17172;DHT22;8701;50.150;8.756;2023-11-19T11:57:45;18.50;99.90
17172;DHT22;8701;50.150;8.756;2023-11-19T12:01:57;17.80;99.90
17172;DHT22;8701;50.150;8.756;2023-11-19T12:06:01;17.00;99.90
17172;DHT22;8701;50.150;8.756;2023-11-19T12:10:09;16.60;99.90
17172;DHT22;8701;50.150;8.756;2023-11-19T12:14:14;16.60;99.90
17172;DHT22;8701;50.150;8.756;2023-11-19T12:18:19;16.50;99.90
17172;DHT22;8701;50.150;8.756;2023-11-19T12:22:21;16.60;99.90
17172;DHT22;8701;50.150;8.756;2023-11-19T12:26:39;16.40;99.90
17172;DHT22;8701;50.150;8.756;2023-11-19T12:30:43;16.20;99.90
17172;DHT22;8701;50.150;8.756;2023-11-19T12:34:45;16.80;99.90
17172;DHT22;8701;50.150;8.756;2023-11-19T12:38:48;18.00;99.90
17172;DHT22;8701;50.150;8.756;2023-11-19T12:42:51;19.40;99.90
17172;DHT22;8701;50.150;8.756;2023-11-19T12:47:03;19.80;99.90
17172;DHT22;8701;50.150;8.756;2023-11-19T12:51:05;18.70;99.90
17172;DHT22;8701;50.150;8.756;2023-11-19T12:55:24;17.80;99.90
17172;DHT22;8701;50.150;8.756;2023-11-19T12:59:26;17.10;99.90
17172;DHT22;8701;50.150;8.756;2023-11-19T13:03:31;16.70;99.90
17172;DHT22;8701;50.150;8.756;2023-11-19T13:07:34;16.50;99.90
17172;DHT22;8701;50.150;8.756;2023-11-19T13:11:36;16.60;99.90
17172;DHT22;8701;50.150;8.756;2023-11-19T13:15:40;16.40;99.90
17172;DHT22;8701;50.150;8.756;2023-11-19T13:19:46;16.30;99.90
17172;DHT22;8701;50.150;8.756;2023-11-19T13:23:48;16.10;99.90
17172;DHT22;8701;50.150;8.756;2023-11-19T13:27:51;16.00;99.90
17172;DHT22;8701;50.150;8.756;2023-11-19T13:31:53;16.30;99.90
17172;DHT22;8701;50.150;8.756;2023-11-19T13:35:57;16.50;99.90
17172;DHT22;8701;50.150;8.756;2023-11-19T13:40:01;16.70;99.90
17172;DHT22;8701;50.150;8.756;2023-11-19T13:44:04;16.60;99.90
17172;DHT22;8701;50.150;8.756;2023-11-19T13:48:07;16.50;99.90
17172;DHT22;8701;50.150;8.756;2023-11-19T13:52:11;16.60;99.90
17172;DHT22;8701;50.150;8.756;2023-11-19T13:56:13;16.80;99.90
17172;DHT22;8701;50.150;8.756;2023-11-19T14:00:16;16.70;99.90
17172;DHT22;8701;50.150;8.756;2023-11-19T14:04:19;16.70;99.90
17172;DHT22;8701;50.150;8.756;2023-11-19T14:08:23;16.60;99.90
17172;DHT22;8701;50.150;8.756;2023-11-19T14:12:25;16.60;99.90
17172;DHT22;8701;50.150;8.756;2023-11-19T14:16:27;16.60;99.90
17172;DHT22;8701;50.150;8.756;2023-11-19T14:20:30;16.70;99.90
17172;DHT22;8701;50.150;8.756;2023-11-19T14:24:33;16.70;99.90
17172;DHT22;8701;50.150;8.756;2023-11-19T14:28:36;16.50;99.90
17172;DHT22;8701;50.150;8.756;2023-11-19T14:32:39;16.10;99.90
17172;DHT22;8701;50.150;8.756;2023-11-19T14:36:41;15.90;99.90
17172;DHT22;8701;50.150;8.756;2023-11-19T14:40:45;15.80;99.90
17172;DHT22;8701;50.150;8.756;2023-11-19T14:44:47;15.50;99.90
17172;DHT22;8701;50.150;8.756;2023-11-19T14:48:49;15.40;99.90
17172;DHT22;8701;50.150;8.756;2023-11-19T14:52:52;15.20;99.90
17172;DHT22;8701;50.150;8.756;2023-11-19T14:56:56;15.10;99.90
17172;DHT22;8701;50.150;8.756;2023-11-19T15:00:58;15.10;99.90
17172;DHT22;8701;50.150;8.756;2023-11-19T15:05:01;15.00;99.90
17172;DHT22;8701;50.150;8.756;2023-11-19T15:09:04;14.90;99.90
17172;DHT22;8701;50.150;8.756;2023-11-19T15:13:10;14.80;99.90
17172;DHT22;8701;50.150;8.756;2023-11-19T15:17:12;14.80;99.90
17172;DHT22;8701;50.150;8.756;2023-11-19T15:21:14;14.80;99.90
17172;DHT22;8701;50.150;8.756;2023-11-19T15:25:16;14.70;99.90
17172;DHT22;8701;50.150;8.756;2023-11-19T15:29:20;14.60;99.90
17172;DHT22;8701;50.150;8.756;2023-11-19T15:33:24;14.60;99.90
17172;DHT22;8701;50.150;8.756;2023-11-19T15:37:26;14.60;99.90
17172;DHT22;8701;50.150;8.756;2023-11-19T15:41:28;14.50;99.90
17172;DHT22;8701;50.150;8.756;2023-11-19T15:45:32;14.40;99.90
17172;DHT22;8701;50.150;8.756;2023-11-19T15:49:38;14.40;99.90
17172;DHT22;8701;50.150;8.756;2023-11-19T15:53:41;14.30;99.90
17172;DHT22;8701;50.150;8.756;2023-11-19T15:57:44;14.30;99.90
17172;DHT22;8701;50.150;8.756;2023-11-19T16:01:48;14.20;99.90
17172;DHT22;8701;50.150;8.756;2023-11-19T16:05:51;14.20;99.90
17172;DHT22;8701;50.150;8.756;2023-11-19T16:09:53;14.00;99.90
17172;DHT22;8701;50.150;8.756;2023-11-19T16:13:55;14.00;99.90
17172;DHT22;8701;50.150;8.756;2023-11-19T16:17:59;14.00;99.90
17172;DHT22;8701;50.150;8.756;2023-11-19T16:22:01;14.00;99.90
17172;DHT22;8701;50.150;8.756;2023-11-19T16:26:11;13.90;99.90
17172;DHT22;8701;50.150;8.756;2023-11-19T16:30:13;13.90;99.90
17172;DHT22;8701;50.150;8.756;2023-11-19T16:34:17;13.80;99.90
17172;DHT22;8701;50.150;8.756;2023-11-19T16:38:19;13.70;99.90
17172;DHT22;8701;50.150;8.756;2023-11-19T16:42:21;13.60;99.90
17172;DHT22;8701;50.150;8.756;2023-11-19T16:46:24;13.50;99.90
17172;DHT22;8701;50.150;8.756;2023-11-19T16:50:28;13.40;99.90
17172;DHT22;8701;50.150;8.756;2023-11-19T16:54:30;13.40;99.90
17172;DHT22;8701;50.150;8.756;2023-11-19T16:58:33;13.30;99.90
17172;DHT22;8701;50.150;8.756;2023-11-19T17:02:35;13.30;99.90
17172;DHT22;8701;50.150;8.756;2023-11-19T17:06:39;13.20;99.90
17172;DHT22;8701;50.150;8.756;2023-11-19T17:10:44;13.10;99.90
17172;DHT22;8701;50.150;8.756;2023-11-19T17:14:46;13.10;99.90
17172;DHT22;8701;50.150;8.756;2023-11-19T17:18:48;13.10;99.90
17172;DHT22;8701;50.150;8.756;2023-11-19T17:22:52;13.10;99.90
17172;DHT22;8701;50.150;8.756;2023-11-19T17:26:55;13.10;99.90
17172;DHT22;8701;50.150;8.756;2023-11-19T17:30:59;13.00;99.90
17172;DHT22;8701;50.150;8.756;2023-11-19T17:35:01;13.00;99.90
17172;DHT22;8701;50.150;8.756;2023-11-19T17:39:05;12.90;99.90
17172;DHT22;8701;50.150;8.756;2023-11-19T17:43:09;12.80;99.90
17172;DHT22;8701;50.150;8.756;2023-11-19T17:47:11;12.70;99.90
17172;DHT22;8701;50.150;8.756;2023-11-19T17:51:15;12.70;99.90
17172;DHT22;8701;50.150;8.756;2023-11-19T17:55:21;12.70;99.90
17172;DHT22;8701;50.150;8.756;2023-11-19T17:59:23;12.60;99.90
17172;DHT22;8701;50.150;8.756;2023-11-19T18:03:26;12.50;99.90
17172;DHT22;8701;50.150;8.756;2023-11-19T18:07:28;12.50;99.90
17172;DHT22;8701;50.150;8.756;2023-11-19T18:11:37;12.40;99.90
17172;DHT22;8701;50.150;8.756;2023-11-19T18:15:39;12.30;99.90
17172;DHT22;8701;50.150;8.756;2023-11-19T18:19:41;12.40;99.90
17172;DHT22;8701;50.150;8.756;2023-11-19T18:23:43;12.40;99.90
17172;DHT22;8701;50.150;8.756;2023-11-19T18:27:49;12.30;99.90
17172;DHT22;8701;50.150;8.756;2023-11-19T18:31:51;12.30;99.90
17172;DHT22;8701;50.150;8.756;2023-11-19T18:35:54;12.20;99.90
17172;DHT22;8701;50.150;8.756;2023-11-19T18:39:56;12.20;99.90
17172;DHT22;8701;50.150;8.756;2023-11-19T18:43:59;12.10;99.90
17172;DHT22;8701;50.150;8.756;2023-11-19T18:48:03;12.10;99.90
17172;DHT22;8701;50.150;8.756;2023-11-19T18:52:06;12.00;99.90
17172;DHT22;8701;50.150;8.756;2023-11-19T18:56:09;12.00;99.90
17172;DHT22;8701;50.150;8.756;2023-11-19T19:00:14;11.90;99.90
17172;DHT22;8701;50.150;8.756;2023-11-19T19:04:17;11.90;99.90
17172;DHT22;8701;50.150;8.756;2023-11-19T19:08:20;11.90;99.90
17172;DHT22;8701;50.150;8.756;2023-11-19T19:12:22;11.80;99.90
17172;DHT22;8701;50.150;8.756;2023-11-19T19:16:26;11.80;99.90
17172;DHT22;8701;50.150;8.756;2023-11-19T19:20:28;11.90;99.90
17172;DHT22;8701;50.150;8.756;2023-11-19T19:24:30;12.00;99.90
17172;DHT22;8701;50.150;8.756;2023-11-19T19:28:33;12.10;99.90
17172;DHT22;8701;50.150;8.756;2023-11-19T19:32:39;12.10;99.90
17172;DHT22;8701;50.150;8.756;2023-11-19T19:36:45;12.20;99.90
17172;DHT22;8701;50.150;8.756;2023-11-19T19:40:47;12.20;99.90
17172;DHT22;8701;50.150;8.756;2023-11-19T19:44:50;12.20;99.90
17172;DHT22;8701;50.150;8.756;2023-11-19T19:48:53;12.20;99.90
17172;DHT22;8701;50.150;8.756;2023-11-19T19:52:55;12.20;99.90
17172;DHT22;8701;50.150;8.756;2023-11-19T19:56:59;12.20;99.90
17172;DHT22;8701;50.150;8.756;2023-11-19T20:01:01;12.20;99.90
17172;DHT22;8701;50.150;8.756;2023-11-19T20:05:07;12.20;99.90
17172;DHT22;8701;50.150;8.756;2023-11-19T20:09:13;12.20;99.90
17172;DHT22;8701;50.150;8.756;2023-11-19T20:13:15;12.20;99.90
17172;DHT22;8701;50.150;8.756;2023-11-19T20:17:18;12.20;99.90
17172;DHT22;8701;50.150;8.756;2023-11-19T20:21:22;12.20;99.90
17172;DHT22;8701;50.150;8.756;2023-11-19T20:25:25;12.30;99.90
17172;DHT22;8701;50.150;8.756;2023-11-19T20:29:27;12.30;99.90
17172;DHT22;8701;50.150;8.756;2023-11-19T20:33:30;12.30;99.90
17172;DHT22;8701;50.150;8.756;2023-11-19T20:37:33;12.30;99.90
17172;DHT22;8701;50.150;8.756;2023-11-19T20:41:37;12.30;99.90
17172;DHT22;8701;50.150;8.756;2023-11-19T20:45:40;12.30;99.90
17172;DHT22;8701;50.150;8.756;2023-11-19T20:49:43;12.30;99.90
17172;DHT22;8701;50.150;8.756;2023-11-19T20:53:47;12.30;99.90
17172;DHT22;8701;50.150;8.756;2023-11-19T20:57:49;12.30;99.90
17172;DHT22;8701;50.150;8.756;2023-11-19T21:01:53;12.40;99.90
17172;DHT22;8701;50.150;8.756;2023-11-19T21:05:56;12.40;99.90
17172;DHT22;8701;50.150;8.756;2023-11-19T21:10:00;12.40;99.90
17172;DHT22;8701;50.150;8.756;2023-11-19T21:14:03;12.40;99.90
17172;DHT22;8701;50.150;8.756;2023-11-19T21:18:05;12.40;99.90
17172;DHT22;8701;50.150;8.756;2023-11-19T21:22:07;12.40;99.90
17172;DHT22;8701;50.150;8.756;2023-11-19T21:26:12;12.40;99.90
17172;DHT22;8701;50.150;8.756;2023-11-19T21:30:16;12.40;99.90
17172;DHT22;8701;50.150;8.756;2023-11-19T21:34:19;12.40;99.90
17172;DHT22;8701;50.150;8.756;2023-11-19T21:38:24;12.40;99.90
17172;DHT22;8701;50.150;8.756;2023-11-19T21:42:28;12.40;99.90
17172;DHT22;8701;50.150;8.756;2023-11-19T21:46:31;12.40;99.90
17172;DHT22;8701;50.150;8.756;2023-11-19T21:50:33;12.40;99.90
17172;DHT22;8701;50.150;8.756;2023-11-19T21:54:35;12.40;99.90
17172;DHT22;8701;50.150;8.756;2023-11-19T21:58:39;12.40;99.90
17172;DHT22;8701;50.150;8.756;2023-11-19T22:02:41;12.40;99.90
17172;DHT22;8701;50.150;8.756;2023-11-19T22:06:44;12.40;99.90
17172;DHT22;8701;50.150;8.756;2023-11-19T22:10:46;12.40;99.90
17172;DHT22;8701;50.150;8.756;2023-11-19T22:14:50;12.40;99.90
17172;DHT22;8701;50.150;8.756;2023-11-19T22:18:52;12.40;99.90
17172;DHT22;8701;50.150;8.756;2023-11-19T22:22:54;12.50;99.90
17172;DHT22;8701;50.150;8.756;2023-11-19T22:26:57;12.50;99.90
17172;DHT22;8701;50.150;8.756;2023-11-19T22:31:00;12.50;99.90
17172;DHT22;8701;50.150;8.756;2023-11-19T22:35:04;12.50;99.90
17172;DHT22;8701;50.150;8.756;2023-11-19T22:39:06;12.40;99.90
17172;DHT22;8701;50.150;8.756;2023-11-19T22:43:09;12.50;99.90
17172;DHT22;8701;50.150;8.756;2023-11-19T22:47:13;12.50;99.90
17172;DHT22;8701;50.150;8.756;2023-11-19T22:51:15;12.50;99.90
17172;DHT22;8701;50.150;8.756;2023-11-19T22:55:18;12.50;99.90
17172;DHT22;8701;50.150;8.756;2023-11-19T22:59:20;12.50;99.90
17172;DHT22;8701;50.150;8.756;2023-11-19T23:03:23;12.40;99.90
17172;DHT22;8701;50.150;8.756;2023-11-19T23:07:26;12.40;99.90
17172;DHT22;8701;50.150;8.756;2023-11-19T23:11:28;12.50;99.90
17172;DHT22;8701;50.150;8.756;2023-11-19T23:15:31;12.50;99.90
17172;DHT22;8701;50.150;8.756;2023-11-19T23:19:34;12.50;99.90
17172;DHT22;8701;50.150;8.756;2023-11-19T23:23:37;12.50;99.90
17172;DHT22;8701;50.150;8.756;2023-11-19T23:27:39;12.70;99.90
17172;DHT22;8701;50.150;8.756;2023-11-19T23:31:41;12.50;99.90
17172;DHT22;8701;50.150;8.756;2023-11-19T23:35:45;12.50;99.90
17172;DHT22;8701;50.150;8.756;2023-11-19T23:39:47;12.40;99.90
17172;DHT22;8701;50.150;8.756;2023-11-19T23:43:49;12.50;99.90
17172;DHT22;8701;50.150;8.756;2023-11-19T23:47:52;12.60;99.90
17172;DHT22;8701;50.150;8.756;2023-11-19T23:51:55;12.50;99.90
17172;DHT22;8701;50.150;8.756;2023-11-19T23:56:00;12.50;99.90
